MS64 weather

Vaiden Landing Airport
Hernando, Mississippi, United States

Public forecast

Using degrees Fahrenheit for public forecast. Weather courtesy of forecast.io.

Closest aviation weather report (METAR) to Vaiden Landing Airport

Closest report is Olive Branch Airport, 9.0 nm (16.7 km) NNE. Retrieved 2019/10/21 09:35 UTC (0 seconds ago):

KOLV 210935Z AUTO 18013G20KT 10SM OVC012 22/20 A2969 RMK A01

Closest aviation forecast (TAF) to Vaiden Landing Airport

Closest forecast is Memphis International Airport, 12.6 nm (23.4 km) NNW. Retrieved 2019/10/21 09:00 UTC (33 minutes ago):

TAF COR KMEM 210857Z 2109/2212 19011G20KT 4SM -SHRA VCTS BKN025CB OVC050 TEMPO 2110/2113 1SM TSRA FM211500 20017G22KT P6SM -SHRA SCT007 OVC015 FM212100 24012G20KT P6SM OVC040 FM220000 26006KT P6SM FEW050